createdAt,value
2022-08-03T00:00:24.265Z,84.48
2022-08-03T00:02:51.468Z,84.23
2022-08-03T00:05:17.969Z,84.87
2022-08-03T00:07:44.463Z,85.07
2022-08-03T00:10:11.187Z,85.14
2022-08-03T00:12:37.639Z,85.43
2022-08-03T00:15:04.650Z,85.20
2022-08-03T00:17:53.029Z,84.98
2022-08-03T00:20:23.459Z,85.46
2022-08-03T00:22:51.401Z,84.78
2022-08-03T00:25:18.057Z,85.08
2022-08-03T00:27:44.510Z,85.58
2022-08-03T00:30:11.690Z,85.64
2022-08-03T00:32:38.748Z,85.97
2022-08-03T00:35:18.244Z,86.46
2022-08-03T00:37:58.799Z,86.37
2022-08-03T00:40:25.453Z,85.90
2022-08-03T00:42:59.952Z,86.93
2022-08-03T00:45:28.763Z,87.20
2022-08-03T00:47:56.305Z,86.46
2022-08-03T00:50:24.791Z,86.61
2022-08-03T00:52:56.587Z,86.68
2022-08-03T00:55:24.001Z,87.14
2022-08-03T00:57:51.283Z,86.86
2022-08-03T01:00:24.061Z,87.63
2022-08-03T01:02:51.620Z,88.00
2022-08-03T01:05:19.132Z,87.62
2022-08-03T01:08:06.572Z,87.67
2022-08-03T01:10:49.667Z,88.03
2022-08-03T01:14:01.262Z,87.66
2022-08-03T01:16:37.528Z,88.44
2022-08-03T01:19:35.373Z,88.53
2022-08-03T01:22:18.079Z,88.98
2022-08-03T01:24:57.781Z,89.19
2022-08-03T01:27:45.767Z,88.87
2022-08-03T01:30:12.547Z,88.80
2022-08-03T01:33:03.942Z,88.61
2022-08-03T01:35:39.262Z,89.24
2022-08-03T01:38:11.440Z,89.85
2022-08-03T01:40:40.892Z,89.96
2022-08-03T01:43:11.037Z,90.21
2022-08-03T01:45:38.580Z,89.86
2022-08-03T01:48:07.328Z,90.02
2022-08-03T01:50:34.922Z,90.06
2022-08-03T01:53:02.406Z,90.67
2022-08-03T01:55:32.029Z,90.59
2022-08-03T01:58:04.588Z,90.81
2022-08-03T02:00:33.370Z,90.61
2022-08-03T02:03:02.018Z,90.24
2022-08-03T02:05:30.752Z,90.61
2022-08-03T02:07:58.517Z,90.93
2022-08-03T02:10:34.323Z,91.11
2022-08-03T02:13:05.187Z,91.67
2022-08-03T02:15:33.405Z,91.46
2022-08-03T02:18:02.130Z,91.81
2022-08-03T02:20:29.621Z,91.84
2022-08-03T02:22:56.074Z,92.30
2022-08-03T02:25:22.601Z,92.24
2022-08-03T02:27:55.098Z,92.11
2022-08-03T02:30:23.544Z,92.38
2022-08-03T02:32:57.788Z,91.76
2022-08-03T02:35:28.283Z,92.05
2022-08-03T02:37:59.618Z,91.78
2022-08-03T02:40:28.565Z,91.55
2022-08-03T02:43:02.586Z,91.90
2022-08-03T02:45:29.844Z,92.24
2022-08-03T02:48:01.810Z,92.00
2022-08-03T02:50:30.697Z,91.34
2022-08-03T02:52:59.608Z,91.47
2022-08-03T02:55:28.356Z,91.42
2022-08-03T02:57:56.852Z,91.73
2022-08-03T03:00:28.703Z,91.14
2022-08-03T03:03:00.785Z,91.57
2022-08-03T03:05:56.432Z,91.72
2022-08-03T03:08:20.635Z,91.92
2022-08-03T03:10:55.745Z,91.63
2022-08-03T03:13:23.104Z,91.66
2022-08-03T03:15:50.852Z,92.23
2022-08-03T03:18:22.375Z,92.62
2022-08-03T03:20:51.499Z,92.55
2022-08-03T03:23:18.203Z,92.43
2022-08-03T03:25:45.400Z,92.71
2022-08-03T03:28:12.216Z,92.49
2022-08-03T03:30:38.756Z,93.13
2022-08-03T03:33:05.294Z,92.84
2022-08-03T03:35:38.725Z,93.01
2022-08-03T03:38:06.724Z,92.95
2022-08-03T03:40:35.477Z,91.98
2022-08-03T03:43:02.387Z,92.65
2022-08-03T03:45:31.011Z,92.66
2022-08-03T03:48:05.321Z,92.67
2022-08-03T03:50:33.783Z,92.68
2022-08-03T03:53:01.088Z,93.36
2022-08-03T03:55:27.571Z,92.74
2022-08-03T03:57:54.704Z,93.00
2022-08-03T04:00:21.445Z,92.88
2022-08-03T04:02:48.043Z,93.19
2022-08-03T04:05:34.152Z,92.41
2022-08-03T04:08:25.704Z,92.68
2022-08-03T04:11:02.821Z,92.90
2022-08-03T04:13:39.784Z,92.30
2022-08-03T04:16:10.576Z,92.36
2022-08-03T04:18:40.745Z,92.67
2022-08-03T04:21:10.485Z,92.62
2022-08-03T04:23:41.418Z,92.88
2022-08-03T04:26:11.962Z,92.71
2022-08-03T04:28:40.856Z,92.69
2022-08-03T04:31:08.222Z,92.79
2022-08-03T04:33:37.077Z,93.03
2022-08-03T04:36:07.792Z,92.65
2022-08-03T04:38:44.000Z,92.50
2022-08-03T04:41:11.532Z,92.71
2022-08-03T04:43:40.672Z,92.01
2022-08-03T04:46:08.173Z,92.48
2022-08-03T04:48:35.081Z,91.53
2022-08-03T04:51:04.285Z,91.83
2022-08-03T04:53:31.202Z,92.16
2022-08-03T04:56:05.577Z,91.06
2022-08-03T04:58:32.224Z,90.79
2022-08-03T05:00:59.280Z,90.60
2022-08-03T05:03:25.730Z,89.95
2022-08-03T05:06:01.802Z,89.21
2022-08-03T05:08:36.059Z,87.54
2022-08-03T05:11:13.045Z,84.30
2022-08-03T05:13:42.979Z,80.81
2022-08-03T05:16:15.209Z,80.97
2022-08-03T05:18:42.876Z,79.73
2022-08-03T05:21:10.593Z,76.31
2022-08-03T05:23:37.869Z,75.18
2022-08-03T05:26:04.529Z,75.40
2022-08-03T05:28:31.011Z,74.86
2022-08-03T05:30:57.459Z,73.26
2022-08-03T05:33:23.885Z,71.43
2022-08-03T05:36:01.565Z,69.53
2022-08-03T05:38:35.014Z,69.46
2022-08-03T05:41:22.442Z,70.30
2022-08-03T05:43:49.188Z,68.69
2022-08-03T05:46:15.985Z,62.16
2022-08-03T05:48:42.910Z,58.64
2022-08-03T05:51:11.546Z,58.89
2022-08-03T05:53:39.810Z,58.16
2022-08-03T05:56:14.443Z,56.63
2022-08-03T05:58:48.480Z,55.97
2022-08-03T06:01:16.833Z,55.37
2022-08-03T06:03:43.638Z,55.34
2022-08-03T06:06:11.342Z,56.01
2022-08-03T06:08:38.277Z,56.01
2022-08-03T06:11:04.830Z,55.90
2022-08-03T06:13:32.127Z,56.92
2022-08-03T06:15:58.543Z,57.74
2022-08-03T06:18:25.041Z,58.70
2022-08-03T06:20:52.556Z,60.48
2022-08-03T06:23:19.333Z,60.83
2022-08-03T06:25:46.724Z,61.57
2022-08-03T06:28:51.893Z,62.79
2022-08-03T06:31:06.510Z,63.56
2022-08-03T06:33:48.557Z,64.00
2022-08-03T06:36:20.445Z,64.05
2022-08-03T06:38:46.907Z,64.82
2022-08-03T06:41:13.459Z,64.97
2022-08-03T06:44:03.733Z,65.55
2022-08-03T06:46:27.059Z,66.51
2022-08-03T06:48:53.741Z,66.44
2022-08-03T06:51:20.354Z,65.99
2022-08-03T06:53:46.803Z,66.00
2022-08-03T06:56:13.254Z,66.57
2022-08-03T06:58:39.725Z,66.34
2022-08-03T07:01:06.235Z,65.75
2022-08-03T07:03:32.700Z,67.29
2022-08-03T07:05:59.608Z,68.07
2022-08-03T07:08:33.631Z,67.46
2022-08-03T07:11:01.329Z,67.69
2022-08-03T07:13:27.783Z,67.89
2022-08-03T07:15:56.387Z,68.44
2022-08-03T07:18:28.368Z,69.85
2022-08-03T07:20:57.915Z,68.09
2022-08-03T07:23:25.573Z,67.22
2022-08-03T07:25:52.322Z,66.93
2022-08-03T07:28:18.941Z,66.00
2022-08-03T07:30:45.373Z,65.81
2022-08-03T07:33:12.001Z,66.02
2022-08-03T07:35:39.240Z,65.52
2022-08-03T07:38:05.786Z,65.90
2022-08-03T07:40:32.420Z,64.66
2022-08-03T07:42:59.741Z,63.51
2022-08-03T07:45:26.610Z,63.69
2022-08-03T07:47:54.205Z,63.50
2022-08-03T07:50:23.230Z,64.75
2022-08-03T07:52:52.796Z,64.93
2022-08-03T07:55:21.950Z,63.20
2022-08-03T07:57:59.881Z,63.81
2022-08-03T08:00:26.342Z,62.38
2022-08-03T08:02:52.860Z,61.93
2022-08-03T08:05:19.438Z,61.99
2022-08-03T08:07:51.646Z,61.48
2022-08-03T08:10:19.192Z,61.01
2022-08-03T08:12:45.744Z,60.53
2022-08-03T08:15:12.223Z,61.07
2022-08-03T08:17:53.458Z,60.43
2022-08-03T08:20:23.786Z,62.02
2022-08-03T08:23:09.642Z,59.36
2022-08-03T08:25:52.730Z,59.11
2022-08-03T08:28:29.830Z,58.22
2022-08-03T08:30:59.047Z,58.32
2022-08-03T08:33:25.878Z,57.78
2022-08-03T08:35:53.436Z,57.99
2022-08-03T08:38:20.327Z,57.26
2022-08-03T08:40:48.664Z,56.59
2022-08-03T08:43:15.165Z,56.43
2022-08-03T08:45:42.404Z,54.06
2022-08-03T08:48:10.778Z,54.14
2022-08-03T08:50:38.674Z,55.04
2022-08-03T08:53:09.670Z,54.23
2022-08-03T08:55:59.614Z,53.78
2022-08-03T08:58:28.526Z,52.65
2022-08-03T09:00:55.495Z,52.97
2022-08-03T09:03:29.137Z,53.21
2022-08-03T09:05:59.518Z,52.33
2022-08-03T09:08:26.296Z,52.69
2022-08-03T09:10:52.902Z,52.35
2022-08-03T09:13:19.334Z,51.88
2022-08-03T09:15:59.827Z,53.43
2022-08-03T09:18:32.827Z,52.82
2022-08-03T09:21:35.367Z,52.41
2022-08-03T09:24:05.813Z,51.63
2022-08-03T09:26:37.896Z,51.63
2022-08-03T09:29:14.326Z,51.12
2022-08-03T09:31:46.551Z,52.50
2022-08-03T09:34:15.915Z,52.43
2022-08-03T09:36:50.481Z,50.99
2022-08-03T09:39:19.327Z,50.40
2022-08-03T09:41:48.367Z,49.98
2022-08-03T09:44:24.488Z,49.99
2022-08-03T09:46:56.541Z,49.57
2022-08-03T09:49:24.379Z,49.68
2022-08-03T09:52:31.805Z,49.44
2022-08-03T09:54:38.250Z,48.33
2022-08-03T09:57:04.981Z,49.04
2022-08-03T09:59:33.323Z,48.99
2022-08-03T10:02:00.421Z,48.51
2022-08-03T10:04:27.780Z,48.70
2022-08-03T10:07:09.179Z,48.64
2022-08-03T10:09:36.543Z,48.08
2022-08-03T10:12:13.667Z,47.21
2022-08-03T10:14:45.264Z,46.43
2022-08-03T10:17:11.861Z,48.38
2022-08-03T10:19:38.719Z,47.25
2022-08-03T10:22:14.753Z,47.53
2022-08-03T10:24:49.596Z,47.50
2022-08-03T10:27:17.620Z,46.92
2022-08-03T10:29:50.473Z,45.64
2022-08-03T10:32:30.374Z,45.96
2022-08-03T10:35:20.827Z,44.47
2022-08-03T10:37:59.814Z,44.91
2022-08-03T10:40:48.241Z,42.61
2022-08-03T10:43:39.112Z,44.75
2022-08-03T10:46:08.428Z,44.25
2022-08-03T10:48:36.709Z,42.53
2022-08-03T10:51:04.737Z,42.25
2022-08-03T10:53:37.132Z,42.07
2022-08-03T10:56:41.600Z,41.84
2022-08-03T10:59:10.576Z,41.85
2022-08-03T11:01:58.589Z,42.48
2022-08-03T11:04:29.182Z,41.50
2022-08-03T11:07:17.719Z,41.83
2022-08-03T11:09:47.528Z,40.44
2022-08-03T11:12:31.363Z,41.14
2022-08-03T11:15:32.472Z,42.18
2022-08-03T11:18:27.046Z,41.62
2022-08-03T11:20:58.888Z,40.49
2022-08-03T11:24:05.275Z,40.60
2022-08-03T11:26:33.629Z,38.35
2022-08-03T11:29:29.179Z,39.90
2022-08-03T11:31:55.964Z,39.05
2022-08-03T11:34:22.506Z,38.14
2022-08-03T11:37:22.140Z,39.30
2022-08-03T11:39:51.630Z,40.69
2022-08-03T11:42:24.136Z,39.32
2022-08-03T11:44:51.730Z,39.01
2022-08-03T11:47:20.525Z,39.07
2022-08-03T11:49:48.805Z,38.32
2022-08-03T11:52:17.558Z,37.60
2022-08-03T11:54:44.478Z,38.35
2022-08-03T11:57:11.415Z,37.54
2022-08-03T11:59:38.812Z,37.70
2022-08-03T12:02:12.325Z,38.09
2022-08-03T12:04:58.309Z,39.04
2022-08-03T12:08:03.689Z,38.96
2022-08-03T12:10:15.110Z,37.68
2022-08-03T12:12:46.442Z,37.51
2022-08-03T12:15:13.637Z,35.64
2022-08-03T12:17:41.367Z,36.87
2022-08-03T12:20:10.230Z,37.19
2022-08-03T12:22:39.800Z,36.70
2022-08-03T12:25:20.198Z,36.64
2022-08-03T12:28:37.021Z,37.45
2022-08-03T12:31:07.448Z,37.59
2022-08-03T12:33:59.818Z,38.15
2022-08-03T12:36:28.381Z,35.45
2022-08-03T12:38:57.788Z,35.56
2022-08-03T12:41:38.272Z,35.47
2022-08-03T12:44:07.380Z,35.57
2022-08-03T12:46:40.040Z,36.35
2022-08-03T12:49:15.379Z,36.75
2022-08-03T12:51:41.932Z,37.24
2022-08-03T12:54:09.220Z,37.43
2022-08-03T12:56:35.956Z,38.72
2022-08-03T12:59:32.500Z,38.03
2022-08-03T13:02:04.527Z,38.39
2022-08-03T13:04:36.372Z,38.37
2022-08-03T13:07:04.608Z,38.52
2022-08-03T13:09:45.420Z,38.60
2022-08-03T13:12:21.040Z,38.93
2022-08-03T13:14:50.862Z,38.77
2022-08-03T13:17:18.266Z,39.00
2022-08-03T13:19:45.870Z,39.22
2022-08-03T13:22:17.695Z,40.24
2022-08-03T13:24:46.096Z,39.76
2022-08-03T13:28:01.958Z,40.72
2022-08-03T13:29:59.609Z,40.88
2022-08-03T13:32:26.255Z,41.03
2022-08-03T13:34:52.910Z,40.37
2022-08-03T13:37:19.376Z,41.33
2022-08-03T13:39:57.630Z,41.35
2022-08-03T13:42:27.065Z,41.31
2022-08-03T13:44:53.620Z,41.43
2022-08-03T13:47:20.904Z,42.12
2022-08-03T13:49:54.297Z,41.93
2022-08-03T13:52:33.194Z,43.11
2022-08-03T13:55:00.236Z,41.99
2022-08-03T13:58:05.684Z,42.05
2022-08-03T14:00:26.285Z,42.07
2022-08-03T14:03:13.799Z,42.83
2022-08-03T14:05:42.364Z,42.43
2022-08-03T14:08:09.518Z,42.13
2022-08-03T14:10:38.744Z,42.38
2022-08-03T14:13:05.947Z,42.42
2022-08-03T14:15:38.222Z,42.01
2022-08-03T14:18:15.236Z,42.01
2022-08-03T14:20:49.958Z,41.41
2022-08-03T14:23:18.973Z,42.39
2022-08-03T14:25:52.100Z,42.17
2022-08-03T14:28:23.577Z,42.79
2022-08-03T14:30:51.066Z,43.16
2022-08-03T14:33:17.715Z,43.15
2022-08-03T14:35:44.208Z,43.69
2022-08-03T14:38:10.726Z,43.25
2022-08-03T14:40:37.539Z,43.58
2022-08-03T14:43:04.480Z,44.00
2022-08-03T14:45:31.063Z,43.25
2022-08-03T14:50:30.564Z,44.00
2022-08-03T14:50:51.093Z,43.88
2022-08-03T14:53:18.542Z,43.64
2022-08-03T14:55:50.419Z,43.94
2022-08-03T14:58:22.492Z,43.61
2022-08-03T15:00:50.917Z,43.38
2022-08-03T15:03:21.525Z,43.95
2022-08-03T15:05:48.101Z,43.63
2022-08-03T15:08:14.721Z,43.70
2022-08-03T15:10:44.784Z,43.31
2022-08-03T15:13:15.042Z,43.44
2022-08-03T15:15:41.713Z,43.81
2022-08-03T15:18:08.889Z,44.39
2022-08-03T15:20:51.068Z,44.12
2022-08-03T15:23:18.277Z,44.18
2022-08-03T15:26:28.905Z,43.30
2022-08-03T15:28:32.646Z,43.76
2022-08-03T15:31:00.437Z,44.41
2022-08-03T15:33:27.076Z,43.99
2022-08-03T15:35:53.998Z,44.11
2022-08-03T15:38:26.098Z,43.78
2022-08-03T15:40:54.487Z,43.53
2022-08-03T15:43:24.319Z,44.19
2022-08-03T15:46:19.198Z,44.77
2022-08-03T15:48:38.146Z,43.48
2022-08-03T15:51:05.277Z,43.29
2022-08-03T15:53:32.058Z,43.81
2022-08-03T15:55:58.776Z,44.02
2022-08-03T15:59:10.875Z,43.70
2022-08-03T16:01:19.688Z,43.79
2022-08-03T16:03:46.967Z,43.54
2022-08-03T16:06:13.842Z,43.80
2022-08-03T16:08:40.351Z,43.83
2022-08-03T16:11:06.847Z,43.77
2022-08-03T16:14:13.375Z,43.62
2022-08-03T16:16:19.851Z,43.89
2022-08-03T16:18:46.338Z,44.20
2022-08-03T16:21:14.800Z,44.68
2022-08-03T16:23:47.418Z,44.35
2022-08-03T16:26:14.141Z,44.57
2022-08-03T16:28:40.899Z,44.77
2022-08-03T16:31:08.940Z,44.33
2022-08-03T16:33:35.864Z,44.46
2022-08-03T16:36:02.563Z,44.60
2022-08-03T16:38:29.625Z,45.21
2022-08-03T16:40:56.061Z,45.33
2022-08-03T16:43:22.816Z,44.90
2022-08-03T16:45:49.566Z,45.44
2022-08-03T16:48:16.828Z,44.60
2022-08-03T16:50:44.301Z,44.59
2022-08-03T16:53:15.708Z,45.41
2022-08-03T16:55:51.926Z,44.82
2022-08-03T16:58:41.387Z,44.95
2022-08-03T17:01:21.687Z,45.60
2022-08-03T17:04:03.195Z,45.57
2022-08-03T17:06:35.326Z,44.89
2022-08-03T17:09:13.720Z,45.34
2022-08-03T17:11:47.280Z,44.88
2022-08-03T17:14:16.454Z,44.90
2022-08-03T17:16:52.284Z,44.91
2022-08-03T17:19:24.866Z,46.00
2022-08-03T17:21:59.280Z,45.67
2022-08-03T17:24:32.306Z,45.70
2022-08-03T17:27:04.113Z,45.50
2022-08-03T17:29:45.325Z,46.13
2022-08-03T17:32:17.930Z,46.49
2022-08-03T17:34:46.520Z,46.30
2022-08-03T17:37:27.208Z,46.95
2022-08-03T17:40:00.694Z,46.88
2022-08-03T17:42:33.199Z,46.30
2022-08-03T17:45:04.003Z,46.44
2022-08-03T17:47:42.104Z,46.95
2022-08-03T17:50:25.328Z,46.37
2022-08-03T17:53:07.263Z,46.93
2022-08-03T17:58:53.451Z,47.29
2022-08-03T18:01:57.805Z,47.30
2022-08-03T18:04:33.498Z,48.26
2022-08-03T18:07:11.389Z,48.05
2022-08-03T18:10:06.197Z,48.35
2022-08-03T18:12:40.180Z,48.41
2022-08-03T18:15:21.136Z,48.78
2022-08-03T18:17:55.236Z,48.73
2022-08-03T18:20:33.004Z,48.34
2022-08-03T18:23:09.131Z,48.51
2022-08-03T18:25:44.949Z,48.94
2022-08-03T18:28:18.703Z,49.24
2022-08-03T18:31:06.130Z,49.28
2022-08-03T18:34:16.630Z,49.27
2022-08-03T18:36:30.071Z,49.46
2022-08-03T18:38:59.230Z,49.51
2022-08-03T18:41:32.224Z,49.73
2022-08-03T18:44:37.769Z,50.27
2022-08-03T18:47:07.541Z,50.30
2022-08-03T18:50:20.641Z,50.46
2022-08-03T18:52:55.439Z,50.76
2022-08-03T18:56:01.613Z,50.67
2022-08-03T18:58:34.311Z,51.50
2022-08-03T19:01:58.128Z,50.83
2022-08-03T19:04:11.795Z,51.28
2022-08-03T19:06:48.122Z,51.62
2022-08-03T19:09:28.085Z,51.51
2022-08-03T19:12:14.416Z,52.47
2022-08-03T19:14:56.148Z,52.62
2022-08-03T19:17:29.430Z,53.87
2022-08-03T19:20:01.570Z,54.27
2022-08-03T19:22:32.062Z,55.82
2022-08-03T19:25:00.835Z,54.72
2022-08-03T19:27:29.435Z,54.88
2022-08-03T19:30:05.008Z,54.68
2022-08-03T19:32:35.292Z,54.32
2022-08-03T19:35:03.692Z,54.48
2022-08-03T19:37:38.722Z,54.50
2022-08-03T19:40:10.978Z,54.86
2022-08-03T19:42:44.484Z,54.72
2022-08-03T19:45:15.571Z,54.38
2022-08-03T19:47:47.372Z,55.30
2022-08-03T19:50:18.916Z,55.44
2022-08-03T19:52:48.220Z,55.57
2022-08-03T19:55:16.654Z,56.65
2022-08-03T19:57:46.141Z,56.42
2022-08-03T20:00:26.120Z,57.17
2022-08-03T20:02:53.707Z,57.98
2022-08-03T20:05:20.508Z,57.35
2022-08-03T20:07:50.120Z,58.12
2022-08-03T20:10:20.648Z,58.16
2022-08-03T20:12:48.677Z,58.93
2022-08-03T20:15:22.218Z,59.19
2022-08-03T20:17:58.622Z,59.93
2022-08-03T20:20:30.881Z,60.77
2022-08-03T20:22:59.470Z,61.68
2022-08-03T20:25:58.127Z,61.44
2022-08-03T20:28:50.302Z,63.17
2022-08-03T20:31:19.246Z,64.51
2022-08-03T20:36:34.804Z,65.89
2022-08-03T20:39:02.092Z,66.09
2022-08-03T20:41:34.657Z,66.20
2022-08-03T20:44:01.719Z,67.01
2022-08-03T20:46:28.152Z,67.00
2022-08-03T20:49:01.179Z,67.96
2022-08-03T20:51:49.910Z,67.79
2022-08-03T20:54:28.596Z,67.34
2022-08-03T20:56:58.623Z,69.01
2022-08-03T20:59:33.646Z,68.08
2022-08-03T21:02:05.397Z,67.91
2022-08-03T21:04:31.864Z,68.33
2022-08-03T21:07:02.563Z,68.78
2022-08-03T21:09:49.682Z,69.19
2022-08-03T21:12:27.114Z,69.29
2022-08-03T21:13:05.447Z,47.74
2022-08-03T21:13:12.545Z,65.25
2022-08-03T21:15:07.963Z,69.39
2022-08-03T21:17:41.870Z,69.85
2022-08-03T21:20:10.699Z,70.02
2022-08-03T21:22:39.521Z,70.30
2022-08-03T21:25:09.201Z,71.16
2022-08-03T21:27:37.095Z,71.65
2022-08-03T21:30:09.146Z,70.71
2022-08-03T21:32:36.362Z,71.30
2022-08-03T21:35:06.902Z,71.95
2022-08-03T21:37:33.532Z,71.84
2022-08-03T21:40:00.637Z,72.81
2022-08-03T21:42:27.189Z,72.06
2022-08-03T21:44:54.251Z,72.10
2022-08-03T21:47:22.704Z,72.94
2022-08-03T21:50:07.378Z,72.94
2022-08-03T21:52:40.932Z,73.21
2022-08-03T21:55:07.854Z,73.53
2022-08-03T21:57:37.617Z,73.46
2022-08-03T22:00:08.661Z,73.78
2022-08-03T22:02:42.966Z,74.06
2022-08-03T22:05:09.712Z,74.52
2022-08-03T22:07:42.999Z,74.84
2022-08-03T22:10:10.853Z,74.38
2022-08-03T22:12:38.041Z,74.19
2022-08-03T22:15:07.822Z,74.95
2022-08-03T22:17:55.622Z,75.42
2022-08-03T22:20:24.022Z,75.05
2022-08-03T22:22:56.068Z,74.75
2022-08-03T22:25:27.279Z,75.76
2022-08-03T22:27:54.573Z,75.54
2022-08-03T22:30:21.456Z,75.35
2022-08-03T22:32:52.716Z,75.20
2022-08-03T22:35:21.037Z,75.66
2022-08-03T22:37:49.501Z,76.09
2022-08-03T22:40:16.752Z,76.10
2022-08-03T22:42:45.874Z,75.67
2022-08-03T22:45:12.588Z,76.11
2022-08-03T22:47:59.780Z,76.64
2022-08-03T22:50:31.467Z,76.27
2022-08-03T22:53:00.530Z,76.43
2022-08-03T22:55:27.560Z,76.90
2022-08-03T22:57:56.074Z,77.23
2022-08-03T23:00:23.371Z,77.58
2022-08-03T23:02:51.436Z,77.46
2022-08-03T23:06:00.574Z,77.68
2022-08-03T23:08:20.457Z,77.81
2022-08-03T23:10:47.920Z,77.86
2022-08-03T23:13:17.118Z,78.07
2022-08-03T23:15:51.477Z,78.24
2022-08-03T23:18:20.788Z,78.46
2022-08-03T23:20:51.546Z,78.38
2022-08-03T23:23:20.637Z,78.68
2022-08-03T23:25:49.752Z,78.25
2022-08-03T23:28:17.015Z,79.31
2022-08-03T23:30:49.716Z,79.02
2022-08-03T23:33:17.906Z,78.71
2022-08-03T23:36:20.135Z,79.12
2022-08-03T23:38:44.239Z,79.27
2022-08-03T23:41:12.480Z,79.77
2022-08-03T23:43:52.263Z,79.80
2022-08-03T23:46:21.960Z,80.34
2022-08-03T23:48:48.530Z,80.34
2022-08-03T23:51:57.011Z,79.91
2022-08-03T23:54:51.369Z,80.21
2022-08-03T23:57:32.649Z,80.30
